sensor_id;sensor_type;location;lat;lon;timestamp;pressure;altitude;pressure_sealevel;temperature;humidity
51359;BME280;37448;51.588;7.248;2023-03-25T00:00:16;99676.53;;;8.31;84.35
51359;BME280;37448;51.588;7.248;2023-03-25T00:02:19;99686.06;;;8.30;83.70
51359;BME280;37448;51.588;7.248;2023-03-25T00:04:19;99658.34;;;8.29;81.89
51359;BME280;37448;51.588;7.248;2023-03-25T00:06:19;99673.13;;;8.29;81.44
51359;BME280;37448;51.588;7.248;2023-03-25T00:08:20;99673.94;;;8.29;82.99
51359;BME280;37448;51.588;7.248;2023-03-25T00:10:21;99675.66;;;8.30;83.65
51359;BME280;37448;51.588;7.248;2023-03-25T00:12:21;99676.63;;;8.26;80.01
51359;BME280;37448;51.588;7.248;2023-03-25T00:14:22;99681.72;;;8.31;82.68
51359;BME280;37448;51.588;7.248;2023-03-25T00:16:24;99677.50;;;8.27;81.68
51359;BME280;37448;51.588;7.248;2023-03-25T00:18:26;99681.03;;;8.24;81.78
51359;BME280;37448;51.588;7.248;2023-03-25T00:20:28;99676.00;;;8.18;81.86
51359;BME280;37448;51.588;7.248;2023-03-25T00:22:28;99677.75;;;8.17;81.24
51359;BME280;37448;51.588;7.248;2023-03-25T00:24:29;99689.09;;;8.15;81.36
51359;BME280;37448;51.588;7.248;2023-03-25T00:26:29;99671.81;;;8.12;80.41
51359;BME280;37448;51.588;7.248;2023-03-25T00:28:34;99669.28;;;8.11;80.39
51359;BME280;37448;51.588;7.248;2023-03-25T00:30:37;99682.28;;;8.11;80.92
51359;BME280;37448;51.588;7.248;2023-03-25T00:32:37;99693.56;;;8.10;80.73
51359;BME280;37448;51.588;7.248;2023-03-25T00:34:38;99684.78;;;8.14;83.02
51359;BME280;37448;51.588;7.248;2023-03-25T00:36:41;99694.25;;;8.16;82.34
51359;BME280;37448;51.588;7.248;2023-03-25T00:38:42;99698.59;;;8.16;81.71
51359;BME280;37448;51.588;7.248;2023-03-25T00:40:44;99686.56;;;8.12;82.40
51359;BME280;37448;51.588;7.248;2023-03-25T00:42:45;99685.72;;;8.11;81.66
51359;BME280;37448;51.588;7.248;2023-03-25T00:44:49;99679.69;;;8.09;81.20
51359;BME280;37448;51.588;7.248;2023-03-25T00:46:49;99684.88;;;8.11;81.42
51359;BME280;37448;51.588;7.248;2023-03-25T00:48:50;99684.88;;;8.11;82.38
51359;BME280;37448;51.588;7.248;2023-03-25T00:50:51;99690.06;;;8.11;81.65
51359;BME280;37448;51.588;7.248;2023-03-25T00:52:52;99672.69;;;8.13;82.05
51359;BME280;37448;51.588;7.248;2023-03-25T00:54:54;99677.00;;;8.12;81.50
51359;BME280;37448;51.588;7.248;2023-03-25T00:56:54;99676.19;;;8.12;82.42
51359;BME280;37448;51.588;7.248;2023-03-25T00:58:58;99686.56;;;8.12;82.36
51359;BME280;37448;51.588;7.248;2023-03-25T01:00:59;99688.38;;;8.10;81.33
51359;BME280;37448;51.588;7.248;2023-03-25T01:03:00;99690.91;;;8.11;81.82
51359;BME280;37448;51.588;7.248;2023-03-25T01:05:03;99688.28;;;8.13;82.22
51359;BME280;37448;51.588;7.248;2023-03-25T01:07:03;99688.38;;;8.10;80.13
51359;BME280;37448;51.588;7.248;2023-03-25T01:09:06;99684.00;;;8.10;81.22
51359;BME280;37448;51.588;7.248;2023-03-25T01:11:17;99688.38;;;8.10;81.62
51359;BME280;37448;51.588;7.248;2023-03-25T01:13:18;99684.88;;;8.11;81.79
51359;BME280;37448;51.588;7.248;2023-03-25T01:15:19;99674.47;;;8.11;81.21
51359;BME280;37448;51.588;7.248;2023-03-25T01:17:20;99689.22;;;8.10;81.56
51359;BME280;37448;51.588;7.248;2023-03-25T01:19:22;99674.47;;;8.11;80.99
51359;BME280;37448;51.588;7.248;2023-03-25T01:21:22;99679.66;;;8.11;81.26
51359;BME280;37448;51.588;7.248;2023-03-25T01:23:23;99678.88;;;8.07;80.27
51359;BME280;37448;51.588;7.248;2023-03-25T01:25:23;99679.66;;;8.11;82.11
51359;BME280;37448;51.588;7.248;2023-03-25T01:27:24;99683.16;;;8.10;80.66
51359;BME280;37448;51.588;7.248;2023-03-25T01:29:24;99676.19;;;8.12;81.99
51359;BME280;37448;51.588;7.248;2023-03-25T01:31:25;99677.13;;;8.08;80.74
51359;BME280;37448;51.588;7.248;2023-03-25T01:33:29;99665.84;;;8.09;82.55
51359;BME280;37448;51.588;7.248;2023-03-25T01:35:30;99675.31;;;8.11;83.72
51359;BME280;37448;51.588;7.248;2023-03-25T01:37:30;99671.13;;;8.05;82.60
51359;BME280;37448;51.588;7.248;2023-03-25T01:39:33;99655.59;;;8.02;83.48
51359;BME280;37448;51.588;7.248;2023-03-25T01:41:35;99653.97;;;7.98;83.67
51359;BME280;37448;51.588;7.248;2023-03-25T01:43:35;99672.16;;;8.00;84.06
51359;BME280;37448;51.588;7.248;2023-03-25T01:45:36;99674.84;;;7.97;83.72
51359;BME280;37448;51.588;7.248;2023-03-25T01:47:37;99666.16;;;7.96;82.96
51359;BME280;37448;51.588;7.248;2023-03-25T01:49:40;99667.88;;;7.97;82.91
51359;BME280;37448;51.588;7.248;2023-03-25T01:51:44;99656.63;;;7.97;81.42
51359;BME280;37448;51.588;7.248;2023-03-25T01:53:48;99659.19;;;7.98;82.75
51359;BME280;37448;51.588;7.248;2023-03-25T01:55:49;99655.69;;;7.99;84.76
51359;BME280;37448;51.588;7.248;2023-03-25T01:57:53;99650.56;;;7.96;81.80
51359;BME280;37448;51.588;7.248;2023-03-25T01:59:56;99653.09;;;7.99;82.96
51359;BME280;37448;51.588;7.248;2023-03-25T02:02:00;99664.44;;;7.97;81.64
51359;BME280;37448;51.588;7.248;2023-03-25T02:04:03;99641.03;;;7.97;82.17
51359;BME280;37448;51.588;7.248;2023-03-25T02:06:14;99649.78;;;7.93;82.23
51359;BME280;37448;51.588;7.248;2023-03-25T02:08:17;99645.47;;;7.93;83.38
51359;BME280;37448;51.588;7.248;2023-03-25T02:10:19;99648.06;;;7.93;84.53
51359;BME280;37448;51.588;7.248;2023-03-25T02:12:20;99654.22;;;7.89;82.42
51359;BME280;37448;51.588;7.248;2023-03-25T02:14:23;99653.34;;;7.90;82.20
51359;BME280;37448;51.588;7.248;2023-03-25T02:18:41;99662.94;;;7.88;80.95
51359;BME280;37448;51.588;7.248;2023-03-25T02:21:16;99656.03;;;7.87;81.23
51359;BME280;37448;51.588;7.248;2023-03-25T02:23:27;99664.72;;;7.86;81.67
51359;BME280;37448;51.588;7.248;2023-03-25T02:26:10;99643.97;;;7.83;80.74
51359;BME280;37448;51.588;7.248;2023-03-25T02:28:34;99656.91;;;7.86;83.45
51359;BME280;37448;51.588;7.248;2023-03-25T02:31:22;99662.25;;;7.80;81.75
51359;BME280;37448;51.588;7.248;2023-03-25T02:36:22;99656.22;;;7.79;83.39
51359;BME280;37448;51.588;7.248;2023-03-25T02:43:31;99659.66;;;7.80;78.57
51359;BME280;37448;51.588;7.248;2023-03-25T02:45:38;99657.88;;;7.82;78.75
51359;BME280;37448;51.588;7.248;2023-03-25T02:47:45;99663.00;;;7.85;80.24
51359;BME280;37448;51.588;7.248;2023-03-25T02:49:58;99656.97;;;7.83;80.01
51359;BME280;37448;51.588;7.248;2023-03-25T02:52:11;99654.38;;;7.83;78.68
51359;BME280;37448;51.588;7.248;2023-03-25T02:54:14;99662.13;;;7.86;81.25
51359;BME280;37448;51.588;7.248;2023-03-25T02:56:18;99655.25;;;7.83;79.07
51359;BME280;37448;51.588;7.248;2023-03-25T02:58:23;99661.31;;;7.84;79.83
51359;BME280;37448;51.588;7.248;2023-03-25T03:00:27;99654.34;;;7.84;80.01
51359;BME280;37448;51.588;7.248;2023-03-25T03:02:29;99648.31;;;7.84;79.83
51359;BME280;37448;51.588;7.248;2023-03-25T03:04:31;99656.09;;;7.84;80.64
51359;BME280;37448;51.588;7.248;2023-03-25T03:06:37;99649.16;;;7.83;80.04
51359;BME280;37448;51.588;7.248;2023-03-25T03:10:56;99645.72;;;7.84;78.51
51359;BME280;37448;51.588;7.248;2023-03-25T03:13:17;99645.72;;;7.82;77.47
51359;BME280;37448;51.588;7.248;2023-03-25T03:22:02;99647.44;;;7.83;79.79
51359;BME280;37448;51.588;7.248;2023-03-25T03:24:36;99657.75;;;7.86;81.20
51359;BME280;37448;51.588;7.248;2023-03-25T03:26:52;99640.50;;;7.84;80.26
51359;BME280;37448;51.588;7.248;2023-03-25T03:31:24;99644.88;;;7.82;78.74
51359;BME280;37448;51.588;7.248;2023-03-25T03:35:59;99640.56;;;7.81;81.71
51359;BME280;37448;51.588;7.248;2023-03-25T03:38:02;99636.22;;;7.81;80.80
51359;BME280;37448;51.588;7.248;2023-03-25T03:40:06;99630.16;;;7.81;79.54
51359;BME280;37448;51.588;7.248;2023-03-25T03:44:15;99637.13;;;7.80;79.16
51359;BME280;37448;51.588;7.248;2023-03-25T03:46:22;99637.16;;;7.79;80.05
51359;BME280;37448;51.588;7.248;2023-03-25T03:48:40;99641.47;;;7.80;80.47
51359;BME280;37448;51.588;7.248;2023-03-25T03:50:46;99644.13;;;7.76;79.80
51359;BME280;37448;51.588;7.248;2023-03-25T03:53:07;99643.31;;;7.76;81.31
51359;BME280;37448;51.588;7.248;2023-03-25T03:55:12;99647.88;;;7.66;80.81
51359;BME280;37448;51.588;7.248;2023-03-25T03:57:25;99655.63;;;7.68;83.81
51359;BME280;37448;51.588;7.248;2023-03-25T03:59:54;99654.94;;;7.61;82.97
51359;BME280;37448;51.588;7.248;2023-03-25T04:02:03;99658.63;;;7.51;81.37
51359;BME280;37448;51.588;7.248;2023-03-25T04:04:07;99649.88;;;7.55;82.95
51359;BME280;37448;51.588;7.248;2023-03-25T04:06:16;99655.88;;;7.57;82.76
51359;BME280;37448;51.588;7.248;2023-03-25T04:08:50;99648.16;;;7.54;82.26
51359;BME280;37448;51.588;7.248;2023-03-25T04:11:15;99657.72;;;7.53;82.31
51359;BME280;37448;51.588;7.248;2023-03-25T04:13:19;99648.25;;;7.51;80.81
51359;BME280;37448;51.588;7.248;2023-03-25T04:15:20;99651.59;;;7.56;82.60
51359;BME280;37448;51.588;7.248;2023-03-25T04:17:22;99646.38;;;7.56;81.70
51359;BME280;37448;51.588;7.248;2023-03-25T04:19:23;99643.78;;;7.56;83.70
51359;BME280;37448;51.588;7.248;2023-03-25T04:21:24;99652.53;;;7.53;84.05
51359;BME280;37448;51.588;7.248;2023-03-25T04:23:26;99652.72;;;7.44;83.88
51359;BME280;37448;51.588;7.248;2023-03-25T04:25:30;99644.25;;;7.37;83.47
51359;BME280;37448;51.588;7.248;2023-03-25T04:27:33;99656.38;;;7.37;85.39
51359;BME280;37448;51.588;7.248;2023-03-25T04:29:36;99644.38;;;7.31;84.48
51359;BME280;37448;51.588;7.248;2023-03-25T04:31:39;99650.47;;;7.30;85.56
51359;BME280;37448;51.588;7.248;2023-03-25T04:33:45;99643.66;;;7.26;85.44
51359;BME280;37448;51.588;7.248;2023-03-25T04:35:45;99641.06;;;7.26;85.18
51359;BME280;37448;51.588;7.248;2023-03-25T04:37:50;99630.66;;;7.26;84.73
51359;BME280;37448;51.588;7.248;2023-03-25T04:39:53;99640.22;;;7.24;84.85
51359;BME280;37448;51.588;7.248;2023-03-25T04:41:55;99647.16;;;7.23;83.71
51359;BME280;37448;51.588;7.248;2023-03-25T04:44:05;99650.59;;;7.25;84.75
51359;BME280;37448;51.588;7.248;2023-03-25T04:46:09;99641.94;;;7.25;85.10
51359;BME280;37448;51.588;7.248;2023-03-25T04:48:20;99640.22;;;7.24;86.41
51359;BME280;37448;51.588;7.248;2023-03-25T04:50:27;99648.03;;;7.22;84.18
51359;BME280;37448;51.588;7.248;2023-03-25T04:52:28;99640.25;;;7.22;85.24
51359;BME280;37448;51.588;7.248;2023-03-25T04:54:28;99637.78;;;7.17;84.49
51359;BME280;37448;51.588;7.248;2023-03-25T04:56:28;99629.13;;;7.17;84.80
51359;BME280;37448;51.588;7.248;2023-03-25T04:58:29;99643.88;;;7.16;85.71
51359;BME280;37448;51.588;7.248;2023-03-25T05:00:29;99649.06;;;7.16;86.49
51359;BME280;37448;51.588;7.248;2023-03-25T05:02:30;99636.97;;;7.15;87.12
51359;BME280;37448;51.588;7.248;2023-03-25T05:04:31;99634.47;;;7.11;85.66
51359;BME280;37448;51.588;7.248;2023-03-25T05:06:36;99641.34;;;7.13;86.89
51359;BME280;37448;51.588;7.248;2023-03-25T05:08:40;99629.31;;;7.09;84.76
51359;BME280;37448;51.588;7.248;2023-03-25T05:10:41;99628.41;;;7.10;85.13
51359;BME280;37448;51.588;7.248;2023-03-25T05:12:42;99630.19;;;7.08;85.24
51359;BME280;37448;51.588;7.248;2023-03-25T05:14:42;99630.13;;;7.11;85.73
51359;BME280;37448;51.588;7.248;2023-03-25T05:16:43;99628.41;;;7.10;85.03
51359;BME280;37448;51.588;7.248;2023-03-25T05:18:44;99632.69;;;7.13;84.78
51359;BME280;37448;51.588;7.248;2023-03-25T05:20:45;99633.56;;;7.13;84.16
51359;BME280;37448;51.588;7.248;2023-03-25T05:22:49;99641.28;;;7.16;85.61
51359;BME280;37448;51.588;7.248;2023-03-25T05:24:52;99634.31;;;7.17;84.78
51359;BME280;37448;51.588;7.248;2023-03-25T05:26:53;99636.97;;;7.15;85.00
51359;BME280;37448;51.588;7.248;2023-03-25T05:28:54;99643.88;;;7.16;85.24
51359;BME280;37448;51.588;7.248;2023-03-25T05:30:55;99639.56;;;7.15;84.73
51359;BME280;37448;51.588;7.248;2023-03-25T05:32:56;99642.09;;;7.18;86.20
51359;BME280;37448;51.588;7.248;2023-03-25T05:34:59;99642.13;;;7.17;85.63
51359;BME280;37448;51.588;7.248;2023-03-25T05:37:00;99649.06;;;7.16;85.17
51359;BME280;37448;51.588;7.248;2023-03-25T05:39:00;99648.09;;;7.21;85.50
51359;BME280;37448;51.588;7.248;2023-03-25T05:41:01;99654.19;;;7.20;85.03
51359;BME280;37448;51.588;7.248;2023-03-25T05:43:01;99642.13;;;7.17;84.01
51359;BME280;37448;51.588;7.248;2023-03-25T05:45:02;99648.03;;;7.22;85.38
51359;BME280;37448;51.588;7.248;2023-03-25T05:47:03;99643.81;;;7.20;84.45
51359;BME280;37448;51.588;7.248;2023-03-25T05:49:04;99652.41;;;7.22;84.58
51359;BME280;37448;51.588;7.248;2023-03-25T05:51:05;99645.50;;;7.21;82.90
51359;BME280;37448;51.588;7.248;2023-03-25T05:53:06;99652.34;;;7.23;82.98
51359;BME280;37448;51.588;7.248;2023-03-25T05:55:10;99648.84;;;7.26;84.69
51359;BME280;37448;51.588;7.248;2023-03-25T05:57:11;99643.66;;;7.26;83.85
51359;BME280;37448;51.588;7.248;2023-03-25T05:59:12;99642.81;;;7.25;83.37
51359;BME280;37448;51.588;7.248;2023-03-25T06:01:14;99647.06;;;7.28;82.77
51359;BME280;37448;51.588;7.248;2023-03-25T06:03:17;99647.84;;;7.31;84.30
51359;BME280;37448;51.588;7.248;2023-03-25T06:05:19;99654.78;;;7.31;83.10
51359;BME280;37448;51.588;7.248;2023-03-25T06:07:22;99648.69;;;7.32;82.13
51359;BME280;37448;51.588;7.248;2023-03-25T06:09:25;99653.94;;;7.30;81.67
51359;BME280;37448;51.588;7.248;2023-03-25T06:11:25;99645.19;;;7.33;82.67
51359;BME280;37448;51.588;7.248;2023-03-25T06:13:26;99646.09;;;7.32;82.71
51359;BME280;37448;51.588;7.248;2023-03-25T06:15:27;99652.97;;;7.35;82.46
51359;BME280;37448;51.588;7.248;2023-03-25T06:17:28;99643.41;;;7.35;83.53
51359;BME280;37448;51.588;7.248;2023-03-25T06:19:28;99650.34;;;7.36;80.53
51359;BME280;37448;51.588;7.248;2023-03-25T06:21:31;99648.56;;;7.38;81.42
51359;BME280;37448;51.588;7.248;2023-03-25T06:23:32;99651.97;;;7.40;80.79
51359;BME280;37448;51.588;7.248;2023-03-25T06:25:34;99660.59;;;7.42;81.77
51359;BME280;37448;51.588;7.248;2023-03-25T06:27:35;99664.00;;;7.44;82.30
51359;BME280;37448;51.588;7.248;2023-03-25T06:29:39;99655.31;;;7.45;82.35
51359;BME280;37448;51.588;7.248;2023-03-25T06:31:41;99662.22;;;7.46;82.86
51359;BME280;37448;51.588;7.248;2023-03-25T06:33:47;99657.81;;;7.50;82.83
51359;BME280;37448;51.588;7.248;2023-03-25T06:35:47;99667.25;;;7.53;81.42
51359;BME280;37448;51.588;7.248;2023-03-25T06:37:53;99659.38;;;7.56;81.58
51359;BME280;37448;51.588;7.248;2023-03-25T06:40:02;99660.13;;;7.61;81.99
51359;BME280;37448;51.588;7.248;2023-03-25T06:42:04;99663.56;;;7.63;81.75
51359;BME280;37448;51.588;7.248;2023-03-25T06:44:23;99665.19;;;7.67;83.05
51359;BME280;37448;51.588;7.248;2023-03-25T06:46:42;99660.88;;;7.66;81.09
51359;BME280;37448;51.588;7.248;2023-03-25T06:48:45;99654.78;;;7.67;81.20
51359;BME280;37448;51.588;7.248;2023-03-25T06:50:46;99660.78;;;7.69;81.86
51359;BME280;37448;51.588;7.248;2023-03-25T06:52:46;99666.97;;;7.65;81.00
51359;BME280;37448;51.588;7.248;2023-03-25T06:54:47;99670.47;;;7.64;80.49
51359;BME280;37448;51.588;7.248;2023-03-25T06:56:47;99668.75;;;7.63;80.43
51359;BME280;37448;51.588;7.248;2023-03-25T06:58:47;99674.69;;;7.68;82.70
51359;BME280;37448;51.588;7.248;2023-03-25T07:00:53;99665.13;;;7.69;81.66
51359;BME280;37448;51.588;7.248;2023-03-25T07:02:53;99678.97;;;7.69;80.31
51359;BME280;37448;51.588;7.248;2023-03-25T07:04:54;99679.72;;;7.74;81.63
51359;BME280;37448;51.588;7.248;2023-03-25T07:06:55;99676.91;;;7.84;82.39
51359;BME280;37448;51.588;7.248;2023-03-25T07:08:55;99681.78;;;7.96;81.90
51359;BME280;37448;51.588;7.248;2023-03-25T07:11:03;99660.56;;;8.12;80.99
51359;BME280;37448;51.588;7.248;2023-03-25T07:13:05;99672.25;;;8.28;79.57
51359;BME280;37448;51.588;7.248;2023-03-25T07:15:06;99669.88;;;8.52;83.11
51359;BME280;37448;51.588;7.248;2023-03-25T07:17:07;99657.66;;;8.56;79.42
51359;BME280;37448;51.588;7.248;2023-03-25T07:19:08;99665.56;;;8.53;77.33
51359;BME280;37448;51.588;7.248;2023-03-25T07:21:08;99663.78;;;8.53;78.11
51359;BME280;37448;51.588;7.248;2023-03-25T07:23:08;99662.28;;;8.44;78.51
51359;BME280;37448;51.588;7.248;2023-03-25T07:25:09;99673.75;;;8.37;76.88
51359;BME280;37448;51.588;7.248;2023-03-25T07:27:11;99675.50;;;8.37;79.05
51359;BME280;37448;51.588;7.248;2023-03-25T07:29:12;99683.31;;;8.37;80.48
51359;BME280;37448;51.588;7.248;2023-03-25T07:31:13;99674.69;;;8.35;79.49
51359;BME280;37448;51.588;7.248;2023-03-25T07:33:14;99684.13;;;8.39;78.36
51359;BME280;37448;51.588;7.248;2023-03-25T07:35:15;99681.19;;;8.51;80.29
51359;BME280;37448;51.588;7.248;2023-03-25T07:37:15;99677.59;;;8.55;79.29
51359;BME280;37448;51.588;7.248;2023-03-25T07:39:15;99691.44;;;8.57;78.75
51359;BME280;37448;51.588;7.248;2023-03-25T07:41:17;99687.06;;;8.59;78.70
51359;BME280;37448;51.588;7.248;2023-03-25T07:43:36;99686.25;;;8.57;77.75
51359;BME280;37448;51.588;7.248;2023-03-25T07:45:55;99698.41;;;8.55;78.77
51359;BME280;37448;51.588;7.248;2023-03-25T07:47:55;99697.72;;;8.50;77.77
51359;BME280;37448;51.588;7.248;2023-03-25T07:49:56;99694.34;;;8.45;78.44
51359;BME280;37448;51.588;7.248;2023-03-25T07:51:56;99696.16;;;8.43;79.71
51359;BME280;37448;51.588;7.248;2023-03-25T07:53:57;99696.16;;;8.43;80.83
51359;BME280;37448;51.588;7.248;2023-03-25T07:55:57;99701.63;;;8.33;79.86
51359;BME280;37448;51.588;7.248;2023-03-25T07:57:57;99714.69;;;8.30;80.17
51359;BME280;37448;51.588;7.248;2023-03-25T08:00:01;99709.66;;;8.24;79.65
51359;BME280;37448;51.588;7.248;2023-03-25T08:02:01;99703.72;;;8.19;80.93
51359;BME280;37448;51.588;7.248;2023-03-25T08:04:02;99703.72;;;8.19;82.53
51359;BME280;37448;51.588;7.248;2023-03-25T08:06:02;99708.34;;;8.08;79.85
51359;BME280;37448;51.588;7.248;2023-03-25T08:08:05;99721.34;;;8.08;79.48
51359;BME280;37448;51.588;7.248;2023-03-25T08:10:06;99716.88;;;8.13;82.10
51359;BME280;37448;51.588;7.248;2023-03-25T08:12:07;99707.47;;;8.09;80.90
51359;BME280;37448;51.588;7.248;2023-03-25T08:14:07;99711.81;;;8.08;80.82
51359;BME280;37448;51.588;7.248;2023-03-25T08:16:12;99712.72;;;8.05;78.62
51359;BME280;37448;51.588;7.248;2023-03-25T08:18:13;99709.97;;;8.12;79.12
51359;BME280;37448;51.588;7.248;2023-03-25T08:20:14;99713.13;;;8.23;80.15
51359;BME280;37448;51.588;7.248;2023-03-25T08:22:14;99722.25;;;8.40;81.42
51359;BME280;37448;51.588;7.248;2023-03-25T08:24:15;99715.91;;;8.50;80.44
51359;BME280;37448;51.588;7.248;2023-03-25T08:26:15;99712.09;;;8.64;79.73
51359;BME280;37448;51.588;7.248;2023-03-25T08:28:17;99708.88;;;8.85;80.14
51359;BME280;37448;51.588;7.248;2023-03-25T08:30:21;99707.78;;;8.93;76.33
51359;BME280;37448;51.588;7.248;2023-03-25T08:32:23;99698.75;;;9.04;79.89
51359;BME280;37448;51.588;7.248;2023-03-25T08:34:23;99699.91;;;9.24;79.41
51359;BME280;37448;51.588;7.248;2023-03-25T08:36:24;99708.59;;;9.52;77.69
51359;BME280;37448;51.588;7.248;2023-03-25T08:38:24;99691.56;;;9.68;77.29
51359;BME280;37448;51.588;7.248;2023-03-25T08:40:34;99696.19;;;9.60;77.92
51359;BME280;37448;51.588;7.248;2023-03-25T08:42:35;99701.97;;;9.41;75.77
51359;BME280;37448;51.588;7.248;2023-03-25T08:44:37;99702.97;;;9.37;77.75
51359;BME280;37448;51.588;7.248;2023-03-25T08:46:37;99707.75;;;9.23;76.35
51359;BME280;37448;51.588;7.248;2023-03-25T08:48:38;99700.38;;;9.09;76.83
51359;BME280;37448;51.588;7.248;2023-03-25T08:50:38;99695.53;;;8.96;75.03
51359;BME280;37448;51.588;7.248;2023-03-25T08:52:39;99707.97;;;8.86;75.59
51359;BME280;37448;51.588;7.248;2023-03-25T08:54:40;99707.16;;;8.84;73.90
51359;BME280;37448;51.588;7.248;2023-03-25T08:56:40;99709.63;;;8.89;74.73
51359;BME280;37448;51.588;7.248;2023-03-25T08:58:41;99689.56;;;8.93;73.78
51359;BME280;37448;51.588;7.248;2023-03-25T09:00:41;99708.38;;;9.02;73.29
51359;BME280;37448;51.588;7.248;2023-03-25T09:02:42;99696.97;;;9.07;74.10
51359;BME280;37448;51.588;7.248;2023-03-25T09:04:43;99700.75;;;9.25;73.98
51359;BME280;37448;51.588;7.248;2023-03-25T09:06:43;99707.50;;;9.32;76.00
51359;BME280;37448;51.588;7.248;2023-03-25T09:08:44;99713.78;;;9.25;75.28
51359;BME280;37448;51.588;7.248;2023-03-25T09:10:44;99701.13;;;9.12;76.15
51359;BME280;37448;51.588;7.248;2023-03-25T09:12:44;99702.22;;;9.05;77.26
51359;BME280;37448;51.588;7.248;2023-03-25T09:14:45;99711.91;;;9.00;77.67
51359;BME280;37448;51.588;7.248;2023-03-25T09:16:45;99727.63;;;8.97;76.89
51359;BME280;37448;51.588;7.248;2023-03-25T09:18:46;99724.41;;;8.88;76.68
51359;BME280;37448;51.588;7.248;2023-03-25T09:20:46;99721.00;;;8.86;76.23
51359;BME280;37448;51.588;7.248;2023-03-25T09:22:47;99724.59;;;8.82;77.67
51359;BME280;37448;51.588;7.248;2023-03-25T09:24:48;99730.03;;;8.73;80.00
51359;BME280;37448;51.588;7.248;2023-03-25T09:26:48;99709.44;;;8.65;79.42
51359;BME280;37448;51.588;7.248;2023-03-25T09:28:49;99720.91;;;8.58;80.06
51359;BME280;37448;51.588;7.248;2023-03-25T09:30:50;99707.88;;;8.59;79.96
51359;BME280;37448;51.588;7.248;2023-03-25T09:32:50;99689.47;;;8.66;79.73
51359;BME280;37448;51.588;7.248;2023-03-25T09:34:50;99702.13;;;8.78;77.97
51359;BME280;37448;51.588;7.248;2023-03-25T09:36:52;99702.75;;;9.16;76.98
51359;BME280;37448;51.588;7.248;2023-03-25T09:38:53;99702.88;;;9.94;77.85
51359;BME280;37448;51.588;7.248;2023-03-25T09:40:53;99705.88;;;10.59;77.04
51359;BME280;37448;51.588;7.248;2023-03-25T09:43:19;99701.44;;;10.85;71.95
51359;BME280;37448;51.588;7.248;2023-03-25T09:45:34;99714.38;;;11.12;71.45
51359;BME280;37448;51.588;7.248;2023-03-25T09:47:35;99714.72;;;11.03;73.88
51359;BME280;37448;51.588;7.248;2023-03-25T09:49:39;99719.09;;;10.79;73.27
51359;BME280;37448;51.588;7.248;2023-03-25T09:51:43;99729.59;;;10.53;74.24
51359;BME280;37448;51.588;7.248;2023-03-25T09:53:55;99732.53;;;10.17;75.86
51359;BME280;37448;51.588;7.248;2023-03-25T09:55:59;99736.53;;;10.02;76.29
51359;BME280;37448;51.588;7.248;2023-03-25T09:58:04;99730.19;;;9.84;78.15
51359;BME280;37448;51.588;7.248;2023-03-25T10:00:18;99735.22;;;9.61;80.20
51359;BME280;37448;51.588;7.248;2023-03-25T10:04:53;99741.16;;;9.38;81.22
51359;BME280;37448;51.588;7.248;2023-03-25T10:14:05;99734.72;;;9.22;81.71
51359;BME280;37448;51.588;7.248;2023-03-25T10:18:38;99741.63;;;8.93;82.16
51359;BME280;37448;51.588;7.248;2023-03-25T10:20:49;99737.50;;;8.85;83.24
51359;BME280;37448;51.588;7.248;2023-03-25T10:22:57;99742.94;;;8.78;85.33
51359;BME280;37448;51.588;7.248;2023-03-25T10:25:04;99750.41;;;8.58;84.08
51359;BME280;37448;51.588;7.248;2023-03-25T10:27:14;99759.22;;;8.53;86.22
51359;BME280;37448;51.588;7.248;2023-03-25T10:29:21;99764.53;;;8.50;87.81
51359;BME280;37448;51.588;7.248;2023-03-25T10:31:28;99774.50;;;8.30;87.08
51359;BME280;37448;51.588;7.248;2023-03-25T10:33:36;99771.09;;;8.28;88.20
51359;BME280;37448;51.588;7.248;2023-03-25T10:35:41;99765.16;;;8.23;88.28
51359;BME280;37448;51.588;7.248;2023-03-25T10:37:42;99761.75;;;8.21;89.37
51359;BME280;37448;51.588;7.248;2023-03-25T10:39:42;99768.91;;;8.46;89.95
51359;BME280;37448;51.588;7.248;2023-03-25T10:41:51;99761.19;;;8.76;89.22
51359;BME280;37448;51.588;7.248;2023-03-25T10:43:55;99757.16;;;8.96;88.59
51359;BME280;37448;51.588;7.248;2023-03-25T10:45:59;99750.50;;;9.17;88.59
51359;BME280;37448;51.588;7.248;2023-03-25T10:48:08;99742.84;;;9.41;89.19
51359;BME280;37448;51.588;7.248;2023-03-25T10:50:16;99755.91;;;9.39;87.11
51359;BME280;37448;51.588;7.248;2023-03-25T10:52:19;99757.00;;;9.32;85.79
51359;BME280;37448;51.588;7.248;2023-03-25T10:54:20;99750.38;;;9.48;88.48
51359;BME280;37448;51.588;7.248;2023-03-25T10:56:25;99756.66;;;9.43;87.02
51359;BME280;37448;51.588;7.248;2023-03-25T10:58:29;99761.47;;;9.27;85.75
51359;BME280;37448;51.588;7.248;2023-03-25T11:00:30;99758.78;;;9.00;85.51
51359;BME280;37448;51.588;7.248;2023-03-25T11:02:32;99770.31;;;8.91;86.65
51359;BME280;37448;51.588;7.248;2023-03-25T11:04:36;99759.28;;;8.83;88.14
51359;BME280;37448;51.588;7.248;2023-03-25T11:06:44;99761.19;;;8.76;89.15
51359;BME280;37448;51.588;7.248;2023-03-25T11:08:56;99763.06;;;8.71;89.24
51359;BME280;37448;51.588;7.248;2023-03-25T11:10:57;99770.41;;;8.56;89.06
51359;BME280;37448;51.588;7.248;2023-03-25T11:13:00;99768.81;;;8.49;89.48
51359;BME280;37448;51.588;7.248;2023-03-25T11:15:06;99767.13;;;8.48;89.79
51359;BME280;37448;51.588;7.248;2023-03-25T11:17:14;99771.59;;;8.43;89.79
51359;BME280;37448;51.588;7.248;2023-03-25T11:19:24;99773.47;;;8.38;90.78
51359;BME280;37448;51.588;7.248;2023-03-25T11:21:29;99777.88;;;8.36;90.75
51359;BME280;37448;51.588;7.248;2023-03-25T11:23:33;99768.34;;;8.35;91.22
51359;BME280;37448;51.588;7.248;2023-03-25T11:25:37;99759.66;;;8.36;91.39
51359;BME280;37448;51.588;7.248;2023-03-25T11:27:51;99758.59;;;8.43;90.94
51359;BME280;37448;51.588;7.248;2023-03-25T11:29:54;99748.91;;;8.50;91.22
51359;BME280;37448;51.588;7.248;2023-03-25T11:32:07;99753.06;;;8.55;91.21
51359;BME280;37448;51.588;7.248;2023-03-25T11:34:19;99749.50;;;8.59;90.18
51359;BME280;37448;51.588;7.248;2023-03-25T11:36:28;99749.44;;;8.63;89.88
51359;BME280;37448;51.588;7.248;2023-03-25T11:38:29;99743.94;;;8.72;89.42
51359;BME280;37448;51.588;7.248;2023-03-25T11:40:34;99733.81;;;8.93;90.53
51359;BME280;37448;51.588;7.248;2023-03-25T11:42:40;99727.78;;;9.21;91.02